createdAt,value
2023-02-16T00:05:26.225Z,3.27
2023-02-16T00:11:49.183Z,3.19
2023-02-16T00:18:09.229Z,3.11
2023-02-16T00:24:32.263Z,3.04
2023-02-16T00:30:52.274Z,2.99
2023-02-16T00:37:15.252Z,2.94
2023-02-16T00:43:35.247Z,2.93
2023-02-16T00:49:58.251Z,2.9
2023-02-16T00:56:18.312Z,2.85
2023-02-16T01:02:41.373Z,2.79
2023-02-16T01:09:01.283Z,2.73
2023-02-16T01:15:24.302Z,2.69
2023-02-16T01:21:44.224Z,2.66
2023-02-16T01:28:07.210Z,2.6
2023-02-16T01:34:27.384Z,2.55
2023-02-16T01:40:50.196Z,2.46
2023-02-16T01:47:10.273Z,2.39
2023-02-16T01:53:33.316Z,2.32
2023-02-16T01:59:53.188Z,2.23
2023-02-16T02:06:17.303Z,2.19
2023-02-16T02:12:37.387Z,2.2
2023-02-16T02:19:00.292Z,2.23
2023-02-16T02:25:20.260Z,2.17
2023-02-16T02:31:43.474Z,2.1
2023-02-16T02:38:03.191Z,2.02
2023-02-16T02:44:26.238Z,1.99
2023-02-16T02:50:46.259Z,1.94
2023-02-16T02:57:09.315Z,1.85
2023-02-16T03:03:29.385Z,1.78
2023-02-16T03:09:52.199Z,1.72
2023-02-16T03:16:12.170Z,1.68
2023-02-16T03:22:35.222Z,1.61
2023-02-16T03:28:55.279Z,1.54
2023-02-16T03:35:18.268Z,1.48
2023-02-16T03:41:38.280Z,1.45
2023-02-16T03:48:01.276Z,1.39
2023-02-16T03:54:21.217Z,1.35
2023-02-16T04:00:44.293Z,1.3
2023-02-16T04:07:04.236Z,1.33
2023-02-16T04:23:55.743Z,1.26
2023-02-16T04:30:15.285Z,1.23
2023-02-16T04:36:38.196Z,1.22
2023-02-16T04:42:58.182Z,1.22
2023-02-16T04:49:21.181Z,1.17
2023-02-16T04:55:41.148Z,1.11
2023-02-16T05:02:04.204Z,1.1
2023-02-16T05:08:24.141Z,1.09
2023-02-16T05:14:47.192Z,1.13
2023-02-16T05:21:07.227Z,1.13
2023-02-16T05:27:30.237Z,1.1
2023-02-16T05:33:50.293Z,1.07
2023-02-16T05:40:13.522Z,1.03
2023-02-16T05:46:33.226Z,0.99
2023-02-16T05:52:56.200Z,0.97
2023-02-16T05:59:16.183Z,0.99
2023-02-16T06:05:40.790Z,0.99
2023-02-16T06:12:01.200Z,1.01
2023-02-16T06:18:24.209Z,1.01
2023-02-16T06:24:44.189Z,0.99
2023-02-16T06:31:07.640Z,0.95
2023-02-16T06:37:27.220Z,0.93
2023-02-16T06:43:50.312Z,0.9
2023-02-16T06:50:10.164Z,0.93
2023-02-16T06:56:33.270Z,0.96
2023-02-16T07:02:53.236Z,0.99
2023-02-16T07:09:16.263Z,1.06
2023-02-16T07:15:36.219Z,1.18
2023-02-16T07:21:59.277Z,1.36
2023-02-16T07:28:19.243Z,1.57
2023-02-16T07:34:42.207Z,1.8
2023-02-16T07:41:02.700Z,2.05
2023-02-16T07:47:25.193Z,2.29
2023-02-16T07:53:45.226Z,2.43
2023-02-16T08:00:08.227Z,2.51
2023-02-16T08:06:28.445Z,2.59
2023-02-16T08:12:51.272Z,2.7
2023-02-16T08:19:11.245Z,2.85
2023-02-16T08:25:34.200Z,3.07
2023-02-16T08:31:54.312Z,3.3
2023-02-16T08:38:17.376Z,3.48
2023-02-16T08:44:37.268Z,3.66
2023-02-16T08:51:00.233Z,3.8
2023-02-16T08:57:20.243Z,3.9
2023-02-16T09:03:43.260Z,3.97
2023-02-16T09:10:03.212Z,4.1
2023-02-16T09:33:45.179Z,4.89
2023-02-16T09:40:08.156Z,5.05
2023-02-16T09:46:28.234Z,5.1
2023-02-16T09:52:52.487Z,5.21
2023-02-16T09:59:11.619Z,5.7
2023-02-16T10:05:35.231Z,6.28
2023-02-16T10:11:55.496Z,6.86
2023-02-16T10:18:18.294Z,7.23
2023-02-16T10:24:38.170Z,7.7
2023-02-16T10:31:01.452Z,8.14
2023-02-16T10:37:21.182Z,8.48
2023-02-16T10:43:44.185Z,8.64
2023-02-16T10:50:04.226Z,8.59
2023-02-16T10:56:27.166Z,8.62
2023-02-16T11:02:47.257Z,8.66
2023-02-16T11:09:10.261Z,8.83
2023-02-16T11:15:30.170Z,9.09
2023-02-16T11:21:53.200Z,9.44
2023-02-16T11:28:13.184Z,9.85
2023-02-16T11:34:36.199Z,10.22
2023-02-16T11:40:56.184Z,10.43
2023-02-16T11:47:19.228Z,10.54
2023-02-16T11:53:39.247Z,10.66
2023-02-16T12:00:02.308Z,10.9
2023-02-16T12:06:22.261Z,11.18
2023-02-16T12:12:45.208Z,11.27
2023-02-16T12:19:05.215Z,11.28
2023-02-16T12:25:28.288Z,11.29
2023-02-16T12:31:48.450Z,11.29
2023-02-16T12:38:12.192Z,11.24
2023-02-16T12:44:32.193Z,11.23
2023-02-16T12:50:55.194Z,11.22
2023-02-16T12:57:15.171Z,11.19
2023-02-16T13:03:38.492Z,11.17
2023-02-16T13:09:58.216Z,11.17
2023-02-16T13:16:29.864Z,11.18
2023-02-16T13:22:41.219Z,11.17
2023-02-16T13:29:04.293Z,11.17
2023-02-16T13:35:24.192Z,11.16
2023-02-16T13:41:47.225Z,11.14
2023-02-16T13:48:07.166Z,11.11
2023-02-16T13:54:30.234Z,11.08
2023-02-16T14:00:50.225Z,11.11
2023-02-16T14:07:13.167Z,11.13
2023-02-16T14:13:33.189Z,11.17
2023-02-16T14:19:56.220Z,11.27
2023-02-16T14:26:16.225Z,11.44
2023-02-16T14:32:39.181Z,11.52
2023-02-16T14:38:59.196Z,11.56
2023-02-16T14:55:28.377Z,11.68
2023-02-16T15:01:48.214Z,11.81
2023-02-16T15:08:11.169Z,11.99
2023-02-16T15:14:31.209Z,12.18
2023-02-16T15:20:54.163Z,12.27
2023-02-16T15:27:14.215Z,12.22
2023-02-16T15:33:37.288Z,12.1
2023-02-16T15:40:22.978Z,12
2023-02-16T15:46:20.221Z,11.92
2023-02-16T15:52:40.173Z,11.86
2023-02-16T15:59:03.240Z,11.77
2023-02-16T16:05:23.160Z,11.64
2023-02-16T16:11:46.319Z,11.51
2023-02-16T16:18:07.387Z,11.38
2023-02-16T16:24:30.480Z,11.21
2023-02-16T16:30:50.282Z,11.03
2023-02-16T16:37:13.158Z,10.86
2023-02-16T16:43:33.304Z,10.68
2023-02-16T16:49:56.416Z,10.52
2023-02-16T16:56:16.173Z,10.41
2023-02-16T17:02:39.197Z,10.31
2023-02-16T17:08:59.208Z,10.23
2023-02-16T17:15:22.230Z,10.18
2023-02-16T17:21:42.220Z,10.15
2023-02-16T17:28:05.204Z,10.1
2023-02-16T17:34:25.176Z,10.06
2023-02-16T17:40:48.360Z,10.01
2023-02-16T17:47:08.229Z,9.96
2023-02-16T17:53:31.169Z,9.95
2023-02-16T17:59:51.237Z,9.92
2023-02-16T18:06:14.240Z,9.89
2023-02-16T18:12:34.184Z,9.91
2023-02-16T18:18:57.350Z,9.94
2023-02-16T18:25:17.185Z,9.97
2023-02-16T18:31:40.400Z,10.01
2023-02-16T18:38:00.176Z,10.04
2023-02-16T18:44:23.191Z,10.05
2023-02-16T18:50:43.504Z,10.06
2023-02-16T18:57:06.194Z,10.09
2023-02-16T19:03:26.414Z,10.1
2023-02-16T19:09:49.184Z,10.09
2023-02-16T19:16:09.349Z,10.06
2023-02-16T19:22:32.308Z,10.04
2023-02-16T19:28:52.172Z,10.02
2023-02-16T19:35:15.197Z,9.99
2023-02-16T19:41:35.196Z,9.99
2023-02-16T19:47:58.199Z,10.01
2023-02-16T19:54:18.180Z,10
2023-02-16T20:10:46.098Z,9.96
2023-02-16T20:17:06.223Z,9.97
2023-02-16T20:23:29.171Z,9.97
2023-02-16T20:29:49.235Z,9.96
2023-02-16T20:36:12.178Z,9.95
2023-02-16T20:42:32.221Z,9.94
2023-02-16T20:48:55.209Z,9.93
2023-02-16T20:55:15.227Z,9.89
2023-02-16T21:01:38.207Z,9.85
2023-02-16T21:07:58.242Z,9.83
2023-02-16T21:14:21.223Z,9.79
2023-02-16T21:20:41.165Z,9.71
2023-02-16T21:27:04.235Z,9.6
2023-02-16T21:33:24.184Z,9.46
2023-02-16T21:39:47.150Z,9.32
2023-02-16T21:46:07.661Z,9.21
2023-02-16T21:52:30.169Z,9.15
2023-02-16T21:58:50.195Z,9.1
2023-02-16T22:05:13.228Z,9.03
2023-02-16T22:11:33.156Z,8.98
2023-02-16T22:17:56.205Z,8.96
2023-02-16T22:24:16.424Z,8.95
2023-02-16T22:30:39.240Z,8.94
2023-02-16T22:36:59.176Z,8.93
2023-02-16T22:43:22.211Z,8.87
2023-02-16T22:49:42.226Z,8.82
2023-02-16T22:56:05.488Z,8.79
2023-02-16T23:20:19.179Z,8.84
2023-02-16T23:26:39.186Z,8.86
2023-02-16T23:33:02.278Z,8.88
2023-02-16T23:39:22.240Z,8.88
2023-02-16T23:45:45.190Z,8.89
2023-02-16T23:52:05.165Z,8.93
2023-02-16T23:58:28.242Z,9.06
